sensor_id;sensor_type;location;lat;lon;timestamp;P1;durP1;ratioP1;P2;durP2;ratioP2
261;SDS011;114;48.260;10.988;2023-04-25T00:01:20;2.17;;;1.97;;
261;SDS011;114;48.260;10.988;2023-04-25T00:03:49;2.17;;;1.97;;
261;SDS011;114;48.260;10.988;2023-04-25T00:06:15;5.23;;;2.07;;
261;SDS011;114;48.260;10.988;2023-04-25T00:08:42;8.03;;;2.40;;
261;SDS011;114;48.260;10.988;2023-04-25T00:11:08;2.53;;;2.33;;
261;SDS011;114;48.260;10.988;2023-04-25T00:13:34;2.73;;;2.53;;
261;SDS011;114;48.260;10.988;2023-04-25T00:16:00;3.73;;;2.70;;
261;SDS011;114;48.260;10.988;2023-04-25T00:18:28;2.50;;;2.40;;
261;SDS011;114;48.260;10.988;2023-04-25T00:20:54;2.33;;;2.13;;
261;SDS011;114;48.260;10.988;2023-04-25T00:23:20;3.03;;;2.13;;
261;SDS011;114;48.260;10.988;2023-04-25T00:25:47;3.10;;;2.80;;
261;SDS011;114;48.260;10.988;2023-04-25T00:28:14;3.53;;;1.97;;
261;SDS011;114;48.260;10.988;2023-04-25T00:30:40;2.67;;;2.50;;
261;SDS011;114;48.260;10.988;2023-04-25T00:33:06;3.10;;;2.13;;
261;SDS011;114;48.260;10.988;2023-04-25T00:35:32;3.10;;;2.80;;
261;SDS011;114;48.260;10.988;2023-04-25T00:37:58;5.07;;;2.20;;
261;SDS011;114;48.260;10.988;2023-04-25T00:40:24;3.20;;;2.87;;
261;SDS011;114;48.260;10.988;2023-04-25T00:42:51;2.30;;;1.90;;
261;SDS011;114;48.260;10.988;2023-04-25T00:45:17;2.53;;;2.43;;
261;SDS011;114;48.260;10.988;2023-04-25T00:47:44;2.20;;;2.10;;
261;SDS011;114;48.260;10.988;2023-04-25T00:50:11;3.13;;;2.67;;
261;SDS011;114;48.260;10.988;2023-04-25T00:52:41;3.67;;;2.67;;
261;SDS011;114;48.260;10.988;2023-04-25T00:55:09;2.47;;;2.27;;
261;SDS011;114;48.260;10.988;2023-04-25T00:57:36;3.23;;;2.93;;
261;SDS011;114;48.260;10.988;2023-04-25T01:00:02;2.83;;;2.63;;
261;SDS011;114;48.260;10.988;2023-04-25T01:02:31;5.50;;;3.10;;
261;SDS011;114;48.260;10.988;2023-04-25T01:04:58;2.73;;;2.63;;
261;SDS011;114;48.260;10.988;2023-04-25T01:07:24;3.07;;;2.87;;
261;SDS011;114;48.260;10.988;2023-04-25T01:09:51;2.47;;;2.23;;
261;SDS011;114;48.260;10.988;2023-04-25T01:12:17;3.20;;;2.90;;
261;SDS011;114;48.260;10.988;2023-04-25T01:14:43;3.30;;;3.10;;
261;SDS011;114;48.260;10.988;2023-04-25T01:17:10;3.93;;;2.37;;
261;SDS011;114;48.260;10.988;2023-04-25T01:19:36;5.23;;;3.30;;
261;SDS011;114;48.260;10.988;2023-04-25T01:22:02;2.90;;;2.80;;
261;SDS011;114;48.260;10.988;2023-04-25T01:24:29;4.80;;;2.80;;
261;SDS011;114;48.260;10.988;2023-04-25T01:26:56;2.63;;;2.37;;
261;SDS011;114;48.260;10.988;2023-04-25T01:29:25;2.77;;;2.67;;
261;SDS011;114;48.260;10.988;2023-04-25T01:31:52;5.00;;;2.40;;
261;SDS011;114;48.260;10.988;2023-04-25T01:34:18;3.23;;;3.10;;
261;SDS011;114;48.260;10.988;2023-04-25T01:36:44;3.17;;;2.87;;
261;SDS011;114;48.260;10.988;2023-04-25T01:39:11;3.60;;;3.30;;
261;SDS011;114;48.260;10.988;2023-04-25T01:41:37;2.77;;;2.67;;
261;SDS011;114;48.260;10.988;2023-04-25T01:44:03;5.90;;;3.20;;
261;SDS011;114;48.260;10.988;2023-04-25T01:46:29;3.00;;;2.87;;
261;SDS011;114;48.260;10.988;2023-04-25T01:48:55;3.13;;;2.93;;
261;SDS011;114;48.260;10.988;2023-04-25T01:51:21;2.97;;;2.77;;
261;SDS011;114;48.260;10.988;2023-04-25T01:53:47;3.13;;;2.83;;
261;SDS011;114;48.260;10.988;2023-04-25T01:56:13;3.63;;;2.37;;
261;SDS011;114;48.260;10.988;2023-04-25T01:58:39;5.20;;;2.57;;
261;SDS011;114;48.260;10.988;2023-04-25T02:01:05;3.93;;;2.67;;
261;SDS011;114;48.260;10.988;2023-04-25T02:03:31;2.73;;;2.63;;
261;SDS011;114;48.260;10.988;2023-04-25T02:05:57;3.40;;;2.73;;
261;SDS011;114;48.260;10.988;2023-04-25T02:08:23;4.40;;;3.87;;
261;SDS011;114;48.260;10.988;2023-04-25T02:10:51;3.27;;;2.70;;
261;SDS011;114;48.260;10.988;2023-04-25T02:13:16;5.43;;;2.83;;
261;SDS011;114;48.260;10.988;2023-04-25T02:15:42;3.60;;;3.10;;
261;SDS011;114;48.260;10.988;2023-04-25T02:18:08;2.73;;;2.50;;
261;SDS011;114;48.260;10.988;2023-04-25T02:20:35;3.87;;;3.13;;
261;SDS011;114;48.260;10.988;2023-04-25T02:23:02;6.73;;;2.60;;
261;SDS011;114;48.260;10.988;2023-04-25T02:25:28;4.10;;;2.77;;
261;SDS011;114;48.260;10.988;2023-04-25T02:27:53;7.10;;;3.60;;
261;SDS011;114;48.260;10.988;2023-04-25T02:30:19;2.90;;;2.70;;
261;SDS011;114;48.260;10.988;2023-04-25T02:32:45;3.50;;;2.97;;
261;SDS011;114;48.260;10.988;2023-04-25T02:35:11;3.37;;;3.17;;
261;SDS011;114;48.260;10.988;2023-04-25T02:37:38;11.20;;;2.83;;
261;SDS011;114;48.260;10.988;2023-04-25T02:40:09;6.80;;;3.23;;
261;SDS011;114;48.260;10.988;2023-04-25T02:42:35;6.80;;;2.63;;
261;SDS011;114;48.260;10.988;2023-04-25T02:45:02;2.40;;;2.20;;
261;SDS011;114;48.260;10.988;2023-04-25T02:47:28;2.50;;;2.33;;
261;SDS011;114;48.260;10.988;2023-04-25T02:49:54;2.80;;;2.53;;
261;SDS011;114;48.260;10.988;2023-04-25T02:52:20;3.53;;;2.87;;
261;SDS011;114;48.260;10.988;2023-04-25T02:54:46;2.97;;;2.60;;
261;SDS011;114;48.260;10.988;2023-04-25T02:57:12;4.63;;;2.77;;
261;SDS011;114;48.260;10.988;2023-04-25T02:59:38;3.83;;;2.10;;
261;SDS011;114;48.260;10.988;2023-04-25T03:02:03;5.07;;;2.53;;
261;SDS011;114;48.260;10.988;2023-04-25T03:04:29;6.50;;;2.80;;
261;SDS011;114;48.260;10.988;2023-04-25T03:06:55;5.77;;;2.57;;
261;SDS011;114;48.260;10.988;2023-04-25T03:09:21;2.00;;;1.90;;
261;SDS011;114;48.260;10.988;2023-04-25T03:11:46;3.00;;;2.10;;
261;SDS011;114;48.260;10.988;2023-04-25T03:14:12;6.33;;;2.20;;
261;SDS011;114;48.260;10.988;2023-04-25T03:16:38;3.47;;;1.90;;
261;SDS011;114;48.260;10.988;2023-04-25T03:19:04;4.60;;;2.37;;
261;SDS011;114;48.260;10.988;2023-04-25T03:21:31;1.93;;;1.70;;
261;SDS011;114;48.260;10.988;2023-04-25T03:23:58;4.43;;;1.90;;
261;SDS011;114;48.260;10.988;2023-04-25T03:26:24;1.47;;;1.37;;
261;SDS011;114;48.260;10.988;2023-04-25T03:28:50;2.60;;;1.40;;
261;SDS011;114;48.260;10.988;2023-04-25T03:31:16;3.07;;;1.43;;
261;SDS011;114;48.260;10.988;2023-04-25T03:33:42;1.30;;;1.07;;
261;SDS011;114;48.260;10.988;2023-04-25T03:36:08;2.17;;;1.27;;
261;SDS011;114;48.260;10.988;2023-04-25T03:38:34;4.93;;;1.90;;
261;SDS011;114;48.260;10.988;2023-04-25T03:41:00;3.60;;;1.10;;
261;SDS011;114;48.260;10.988;2023-04-25T03:43:26;2.50;;;1.60;;
261;SDS011;114;48.260;10.988;2023-04-25T03:45:52;1.70;;;1.60;;
261;SDS011;114;48.260;10.988;2023-04-25T03:48:18;1.50;;;1.17;;
261;SDS011;114;48.260;10.988;2023-04-25T03:50:46;1.13;;;1.13;;
261;SDS011;114;48.260;10.988;2023-04-25T03:53:12;1.73;;;1.23;;
261;SDS011;114;48.260;10.988;2023-04-25T03:55:38;2.97;;;1.00;;
261;SDS011;114;48.260;10.988;2023-04-25T03:58:04;4.67;;;1.20;;
261;SDS011;114;48.260;10.988;2023-04-25T04:00:30;2.27;;;1.23;;
261;SDS011;114;48.260;10.988;2023-04-25T04:02:55;3.93;;;1.63;;
261;SDS011;114;48.260;10.988;2023-04-25T04:05:21;1.80;;;0.80;;
261;SDS011;114;48.260;10.988;2023-04-25T04:07:48;1.87;;;1.20;;
261;SDS011;114;48.260;10.988;2023-04-25T04:10:14;6.20;;;1.30;;
261;SDS011;114;48.260;10.988;2023-04-25T04:12:39;1.47;;;1.37;;
261;SDS011;114;48.260;10.988;2023-04-25T04:15:05;2.70;;;1.30;;
261;SDS011;114;48.260;10.988;2023-04-25T04:17:32;1.40;;;1.30;;
261;SDS011;114;48.260;10.988;2023-04-25T04:19:57;5.03;;;1.40;;
261;SDS011;114;48.260;10.988;2023-04-25T04:22:23;7.47;;;1.60;;
261;SDS011;114;48.260;10.988;2023-04-25T04:24:49;1.60;;;1.50;;
261;SDS011;114;48.260;10.988;2023-04-25T04:27:17;4.50;;;1.73;;
261;SDS011;114;48.260;10.988;2023-04-25T04:29:44;1.97;;;1.50;;
261;SDS011;114;48.260;10.988;2023-04-25T04:32:10;4.90;;;1.23;;
261;SDS011;114;48.260;10.988;2023-04-25T04:34:35;1.53;;;1.43;;
261;SDS011;114;48.260;10.988;2023-04-25T04:37:02;1.70;;;1.60;;
261;SDS011;114;48.260;10.988;2023-04-25T04:39:29;1.97;;;1.73;;
261;SDS011;114;48.260;10.988;2023-04-25T04:41:54;1.87;;;1.77;;
261;SDS011;114;48.260;10.988;2023-04-25T04:44:20;1.63;;;1.37;;
261;SDS011;114;48.260;10.988;2023-04-25T04:46:45;5.80;;;1.63;;
261;SDS011;114;48.260;10.988;2023-04-25T04:49:11;7.33;;;2.33;;
261;SDS011;114;48.260;10.988;2023-04-25T04:51:38;1.93;;;1.70;;
261;SDS011;114;48.260;10.988;2023-04-25T04:54:09;3.47;;;1.77;;
261;SDS011;114;48.260;10.988;2023-04-25T04:56:35;2.20;;;2.10;;
261;SDS011;114;48.260;10.988;2023-04-25T04:59:01;3.03;;;2.10;;
261;SDS011;114;48.260;10.988;2023-04-25T05:01:27;2.30;;;1.60;;
261;SDS011;114;48.260;10.988;2023-04-25T05:03:55;3.23;;;2.17;;
261;SDS011;114;48.260;10.988;2023-04-25T05:06:25;2.17;;;2.07;;
261;SDS011;114;48.260;10.988;2023-04-25T05:08:51;3.97;;;2.57;;
261;SDS011;114;48.260;10.988;2023-04-25T05:11:18;5.30;;;2.60;;
261;SDS011;114;48.260;10.988;2023-04-25T05:13:44;5.03;;;2.20;;
261;SDS011;114;48.260;10.988;2023-04-25T05:16:10;6.87;;;2.60;;
261;SDS011;114;48.260;10.988;2023-04-25T05:18:36;2.80;;;2.40;;
261;SDS011;114;48.260;10.988;2023-04-25T05:21:02;6.30;;;2.30;;
261;SDS011;114;48.260;10.988;2023-04-25T05:23:28;8.83;;;2.67;;
261;SDS011;114;48.260;10.988;2023-04-25T05:25:55;4.53;;;2.40;;
261;SDS011;114;48.260;10.988;2023-04-25T05:28:21;5.70;;;2.50;;
261;SDS011;114;48.260;10.988;2023-04-25T05:30:46;3.40;;;2.63;;
261;SDS011;114;48.260;10.988;2023-04-25T05:33:12;3.10;;;2.87;;
261;SDS011;114;48.260;10.988;2023-04-25T05:35:38;3.70;;;3.00;;
261;SDS011;114;48.260;10.988;2023-04-25T05:38:04;7.30;;;3.00;;
261;SDS011;114;48.260;10.988;2023-04-25T05:40:29;2.40;;;2.20;;
261;SDS011;114;48.260;10.988;2023-04-25T05:42:55;4.90;;;2.67;;
261;SDS011;114;48.260;10.988;2023-04-25T05:45:21;5.13;;;2.40;;
261;SDS011;114;48.260;10.988;2023-04-25T05:47:46;2.60;;;2.17;;
261;SDS011;114;48.260;10.988;2023-04-25T05:50:12;3.63;;;2.17;;
261;SDS011;114;48.260;10.988;2023-04-25T05:52:38;3.77;;;2.47;;
261;SDS011;114;48.260;10.988;2023-04-25T05:55:04;4.37;;;2.10;;
261;SDS011;114;48.260;10.988;2023-04-25T05:57:30;2.70;;;2.43;;
261;SDS011;114;48.260;10.988;2023-04-25T05:59:56;2.97;;;1.80;;
261;SDS011;114;48.260;10.988;2023-04-25T06:02:22;5.00;;;2.20;;
261;SDS011;114;48.260;10.988;2023-04-25T06:04:49;5.80;;;2.90;;
261;SDS011;114;48.260;10.988;2023-04-25T06:07:15;6.43;;;2.60;;
261;SDS011;114;48.260;10.988;2023-04-25T06:09:40;5.73;;;2.27;;
261;SDS011;114;48.260;10.988;2023-04-25T06:12:06;3.50;;;2.00;;
261;SDS011;114;48.260;10.988;2023-04-25T06:14:33;4.20;;;2.20;;
261;SDS011;114;48.260;10.988;2023-04-25T06:16:58;4.90;;;2.17;;
261;SDS011;114;48.260;10.988;2023-04-25T06:19:24;7.47;;;4.40;;
261;SDS011;114;48.260;10.988;2023-04-25T06:21:50;6.13;;;3.00;;
261;SDS011;114;48.260;10.988;2023-04-25T06:24:16;3.23;;;2.87;;
261;SDS011;114;48.260;10.988;2023-04-25T06:26:41;9.13;;;3.27;;
261;SDS011;114;48.260;10.988;2023-04-25T06:29:07;4.77;;;2.33;;
261;SDS011;114;48.260;10.988;2023-04-25T06:31:33;2.80;;;1.97;;
261;SDS011;114;48.260;10.988;2023-04-25T06:33:58;2.13;;;1.93;;
261;SDS011;114;48.260;10.988;2023-04-25T06:36:24;2.90;;;1.80;;
261;SDS011;114;48.260;10.988;2023-04-25T06:38:51;1.87;;;1.57;;
261;SDS011;114;48.260;10.988;2023-04-25T06:41:20;2.73;;;2.50;;
261;SDS011;114;48.260;10.988;2023-04-25T06:43:45;4.43;;;2.07;;
261;SDS011;114;48.260;10.988;2023-04-25T06:46:11;7.00;;;1.93;;
261;SDS011;114;48.260;10.988;2023-04-25T06:48:37;2.00;;;1.90;;
261;SDS011;114;48.260;10.988;2023-04-25T06:51:03;3.20;;;1.33;;
261;SDS011;114;48.260;10.988;2023-04-25T06:53:29;2.33;;;1.50;;
261;SDS011;114;48.260;10.988;2023-04-25T06:55:54;2.10;;;1.50;;
261;SDS011;114;48.260;10.988;2023-04-25T06:58:20;1.23;;;1.13;;
261;SDS011;114;48.260;10.988;2023-04-25T07:00:46;2.00;;;1.67;;
261;SDS011;114;48.260;10.988;2023-04-25T07:03:11;2.33;;;1.10;;
261;SDS011;114;48.260;10.988;2023-04-25T07:05:37;3.63;;;1.40;;
261;SDS011;114;48.260;10.988;2023-04-25T07:08:03;1.53;;;1.43;;
261;SDS011;114;48.260;10.988;2023-04-25T07:10:29;11.60;;;5.07;;
261;SDS011;114;48.260;10.988;2023-04-25T07:12:54;9.00;;;1.57;;
261;SDS011;114;48.260;10.988;2023-04-25T07:15:20;1.57;;;1.43;;
261;SDS011;114;48.260;10.988;2023-04-25T07:17:46;1.60;;;1.50;;
261;SDS011;114;48.260;10.988;2023-04-25T07:20:12;1.80;;;1.13;;
261;SDS011;114;48.260;10.988;2023-04-25T07:22:37;1.67;;;1.20;;
261;SDS011;114;48.260;10.988;2023-04-25T07:25:03;2.20;;;1.33;;
261;SDS011;114;48.260;10.988;2023-04-25T07:27:29;1.60;;;1.50;;
261;SDS011;114;48.260;10.988;2023-04-25T07:29:56;2.23;;;1.40;;
261;SDS011;114;48.260;10.988;2023-04-25T07:32:22;6.17;;;1.67;;
261;SDS011;114;48.260;10.988;2023-04-25T07:34:48;1.60;;;1.50;;
261;SDS011;114;48.260;10.988;2023-04-25T07:37:14;1.23;;;1.13;;
261;SDS011;114;48.260;10.988;2023-04-25T07:39:40;3.00;;;1.67;;
261;SDS011;114;48.260;10.988;2023-04-25T07:42:06;2.43;;;0.93;;
261;SDS011;114;48.260;10.988;2023-04-25T07:44:33;1.50;;;0.97;;
261;SDS011;114;48.260;10.988;2023-04-25T07:47:04;1.73;;;1.10;;
261;SDS011;114;48.260;10.988;2023-04-25T07:49:32;2.40;;;1.60;;
261;SDS011;114;48.260;10.988;2023-04-25T07:51:59;1.30;;;1.20;;
261;SDS011;114;48.260;10.988;2023-04-25T07:54:25;1.47;;;1.37;;
261;SDS011;114;48.260;10.988;2023-04-25T07:56:51;9.60;;;1.63;;
261;SDS011;114;48.260;10.988;2023-04-25T07:59:17;6.47;;;1.03;;
261;SDS011;114;48.260;10.988;2023-04-25T08:01:42;4.63;;;1.47;;
261;SDS011;114;48.260;10.988;2023-04-25T08:04:08;1.57;;;1.30;;
261;SDS011;114;48.260;10.988;2023-04-25T08:06:34;6.53;;;3.03;;
261;SDS011;114;48.260;10.988;2023-04-25T08:09:00;1.53;;;1.03;;
261;SDS011;114;48.260;10.988;2023-04-25T08:11:25;1.67;;;1.30;;
261;SDS011;114;48.260;10.988;2023-04-25T08:13:51;1.83;;;1.07;;
261;SDS011;114;48.260;10.988;2023-04-25T08:16:17;1.67;;;1.33;;
261;SDS011;114;48.260;10.988;2023-04-25T08:18:42;3.33;;;1.87;;
261;SDS011;114;48.260;10.988;2023-04-25T08:21:08;10.53;;;1.53;;
261;SDS011;114;48.260;10.988;2023-04-25T08:23:36;2.57;;;1.47;;
261;SDS011;114;48.260;10.988;2023-04-25T08:26:02;4.43;;;1.50;;
261;SDS011;114;48.260;10.988;2023-04-25T08:28:28;1.27;;;0.97;;
261;SDS011;114;48.260;10.988;2023-04-25T08:30:54;3.80;;;1.30;;
261;SDS011;114;48.260;10.988;2023-04-25T08:33:19;2.60;;;1.10;;
261;SDS011;114;48.260;10.988;2023-04-25T08:35:45;3.27;;;1.30;;
261;SDS011;114;48.260;10.988;2023-04-25T08:38:11;2.60;;;1.13;;
261;SDS011;114;48.260;10.988;2023-04-25T08:40:37;5.13;;;1.17;;
261;SDS011;114;48.260;10.988;2023-04-25T08:43:05;2.20;;;0.87;;
261;SDS011;114;48.260;10.988;2023-04-25T08:45:36;2.30;;;1.00;;
261;SDS011;114;48.260;10.988;2023-04-25T08:48:07;2.43;;;1.43;;
261;SDS011;114;48.260;10.988;2023-04-25T08:50:39;2.80;;;0.80;;
261;SDS011;114;48.260;10.988;2023-04-25T08:53:10;2.30;;;1.33;;
261;SDS011;114;48.260;10.988;2023-04-25T08:55:41;2.33;;;0.93;;
261;SDS011;114;48.260;10.988;2023-04-25T08:58:07;1.73;;;1.30;;
261;SDS011;114;48.260;10.988;2023-04-25T09:00:35;5.70;;;1.30;;
261;SDS011;114;48.260;10.988;2023-04-25T09:03:01;3.03;;;1.43;;
261;SDS011;114;48.260;10.988;2023-04-25T09:05:28;4.57;;;0.90;;
261;SDS011;114;48.260;10.988;2023-04-25T09:07:54;2.00;;;1.03;;
261;SDS011;114;48.260;10.988;2023-04-25T09:10:21;1.87;;;0.87;;
261;SDS011;114;48.260;10.988;2023-04-25T09:13:03;1.33;;;0.90;;
261;SDS011;114;48.260;10.988;2023-04-25T09:15:30;1.77;;;1.30;;
261;SDS011;114;48.260;10.988;2023-04-25T09:17:57;3.40;;;1.03;;
261;SDS011;114;48.260;10.988;2023-04-25T09:20:23;3.40;;;1.00;;
261;SDS011;114;48.260;10.988;2023-04-25T09:22:49;1.23;;;1.13;;
261;SDS011;114;48.260;10.988;2023-04-25T09:25:27;6.40;;;1.63;;
261;SDS011;114;48.260;10.988;2023-04-25T09:28:04;2.63;;;1.97;;
261;SDS011;114;48.260;10.988;2023-04-25T09:30:31;1.40;;;1.00;;
261;SDS011;114;48.260;10.988;2023-04-25T09:33:04;1.80;;;1.20;;
261;SDS011;114;48.260;10.988;2023-04-25T09:35:35;2.73;;;1.27;;
261;SDS011;114;48.260;10.988;2023-04-25T09:38:11;3.83;;;1.20;;
261;SDS011;114;48.260;10.988;2023-04-25T09:40:39;4.03;;;1.13;;
261;SDS011;114;48.260;10.988;2023-04-25T09:43:09;1.60;;;1.27;;
261;SDS011;114;48.260;10.988;2023-04-25T09:45:41;2.87;;;1.20;;
261;SDS011;114;48.260;10.988;2023-04-25T09:48:11;1.37;;;1.27;;
261;SDS011;114;48.260;10.988;2023-04-25T09:50:38;2.30;;;1.37;;
261;SDS011;114;48.260;10.988;2023-04-25T09:53:04;1.90;;;1.03;;
261;SDS011;114;48.260;10.988;2023-04-25T09:55:34;2.93;;;1.30;;
261;SDS011;114;48.260;10.988;2023-04-25T09:58:03;1.30;;;1.10;;
261;SDS011;114;48.260;10.988;2023-04-25T10:00:32;3.27;;;0.80;;
261;SDS011;114;48.260;10.988;2023-04-25T10:03:00;1.30;;;1.07;;
261;SDS011;114;48.260;10.988;2023-04-25T10:05:30;1.40;;;1.07;;
261;SDS011;114;48.260;10.988;2023-04-25T10:07:58;0.90;;;0.73;;
261;SDS011;114;48.260;10.988;2023-04-25T10:10:27;1.60;;;0.70;;
261;SDS011;114;48.260;10.988;2023-04-25T10:12:55;7.10;;;1.00;;
261;SDS011;114;48.260;10.988;2023-04-25T10:15:21;2.00;;;1.27;;
261;SDS011;114;48.260;10.988;2023-04-25T10:17:48;0.60;;;0.40;;
261;SDS011;114;48.260;10.988;2023-04-25T10:20:15;0.80;;;0.80;;
261;SDS011;114;48.260;10.988;2023-04-25T10:22:42;1.00;;;0.83;;
261;SDS011;114;48.260;10.988;2023-04-25T10:25:10;0.90;;;0.90;;
261;SDS011;114;48.260;10.988;2023-04-25T10:27:36;1.23;;;0.70;;
261;SDS011;114;48.260;10.988;2023-04-25T10:32:31;1.63;;;0.83;;
261;SDS011;114;48.260;10.988;2023-04-25T10:40:31;3.40;;;1.20;;
261;SDS011;114;48.260;10.988;2023-04-25T10:46:02;1.27;;;0.67;;
261;SDS011;114;48.260;10.988;2023-04-25T10:48:37;2.70;;;2.50;;
261;SDS011;114;48.260;10.988;2023-04-25T10:51:27;2.50;;;1.20;;
261;SDS011;114;48.260;10.988;2023-04-25T10:56:30;1.10;;;1.00;;
261;SDS011;114;48.260;10.988;2023-04-25T11:01:39;1.70;;;0.90;;
261;SDS011;114;48.260;10.988;2023-04-25T11:06:56;1.93;;;1.27;;
261;SDS011;114;48.260;10.988;2023-04-25T11:09:30;2.77;;;1.23;;
261;SDS011;114;48.260;10.988;2023-04-25T11:11:58;3.80;;;1.30;;
261;SDS011;114;48.260;10.988;2023-04-25T11:14:25;4.03;;;1.40;;
261;SDS011;114;48.260;10.988;2023-04-25T11:16:55;2.50;;;1.20;;
261;SDS011;114;48.260;10.988;2023-04-25T11:19:25;1.43;;;1.00;;
261;SDS011;114;48.260;10.988;2023-04-25T11:21:55;2.33;;;2.13;;
261;SDS011;114;48.260;10.988;2023-04-25T11:24:27;1.57;;;1.47;;
261;SDS011;114;48.260;10.988;2023-04-25T11:26:53;1.50;;;1.30;;
261;SDS011;114;48.260;10.988;2023-04-25T11:29:21;2.03;;;1.50;;
261;SDS011;114;48.260;10.988;2023-04-25T11:31:48;3.10;;;1.70;;
261;SDS011;114;48.260;10.988;2023-04-25T11:34:17;2.70;;;1.40;;
261;SDS011;114;48.260;10.988;2023-04-25T11:36:43;2.40;;;1.50;;
261;SDS011;114;48.260;10.988;2023-04-25T11:39:10;4.30;;;1.20;;
261;SDS011;114;48.260;10.988;2023-04-25T11:41:39;1.20;;;1.10;;
261;SDS011;114;48.260;10.988;2023-04-25T11:44:05;1.87;;;0.90;;
261;SDS011;114;48.260;10.988;2023-04-25T11:46:33;2.30;;;1.10;;
261;SDS011;114;48.260;10.988;2023-04-25T11:49:00;3.57;;;2.20;;
261;SDS011;114;48.260;10.988;2023-04-25T11:51:25;2.03;;;1.40;;
261;SDS011;114;48.260;10.988;2023-04-25T11:53:52;1.50;;;0.63;;
261;SDS011;114;48.260;10.988;2023-04-25T11:56:17;1.10;;;0.80;;
261;SDS011;114;48.260;10.988;2023-04-25T12:01:26;0.70;;;0.70;;
261;SDS011;114;48.260;10.988;2023-04-25T12:03:52;2.43;;;1.00;;
261;SDS011;114;48.260;10.988;2023-04-25T12:06:17;0.97;;;0.87;;
261;SDS011;114;48.260;10.988;2023-04-25T12:09:02;1.03;;;0.93;;
261;SDS011;114;48.260;10.988;2023-04-25T12:11:31;0.90;;;0.83;;
261;SDS011;114;48.260;10.988;2023-04-25T12:14:03;2.40;;;1.50;;
261;SDS011;114;48.260;10.988;2023-04-25T12:16:44;3.20;;;2.60;;
261;SDS011;114;48.260;10.988;2023-04-25T12:19:14;0.60;;;0.60;;
261;SDS011;114;48.260;10.988;2023-04-25T12:21:41;0.97;;;0.97;;
261;SDS011;114;48.260;10.988;2023-04-25T12:24:11;1.50;;;0.83;;
261;SDS011;114;48.260;10.988;2023-04-25T12:26:47;0.97;;;0.87;;
261;SDS011;114;48.260;10.988;2023-04-25T12:29:22;0.80;;;0.80;;
261;SDS011;114;48.260;10.988;2023-04-25T12:31:50;1.00;;;0.97;;
261;SDS011;114;48.260;10.988;2023-04-25T12:34:17;0.70;;;0.70;;
261;SDS011;114;48.260;10.988;2023-04-25T12:36:44;1.00;;;1.00;;
261;SDS011;114;48.260;10.988;2023-04-25T12:39:16;1.43;;;1.23;;
261;SDS011;114;48.260;10.988;2023-04-25T12:41:44;2.50;;;1.10;;
261;SDS011;114;48.260;10.988;2023-04-25T12:44:10;0.70;;;0.70;;
261;SDS011;114;48.260;10.988;2023-04-25T12:46:36;0.90;;;0.80;;
261;SDS011;114;48.260;10.988;2023-04-25T12:49:03;1.03;;;0.93;;
261;SDS011;114;48.260;10.988;2023-04-25T12:51:30;0.77;;;0.77;;
261;SDS011;114;48.260;10.988;2023-04-25T12:53:57;0.60;;;0.40;;
261;SDS011;114;48.260;10.988;2023-04-25T12:56:27;0.50;;;0.50;;
261;SDS011;114;48.260;10.988;2023-04-25T12:58:53;1.53;;;0.50;;
261;SDS011;114;48.260;10.988;2023-04-25T13:01:19;0.47;;;0.40;;
261;SDS011;114;48.260;10.988;2023-04-25T13:03:45;0.50;;;0.50;;
261;SDS011;114;48.260;10.988;2023-04-25T13:06:12;0.50;;;0.40;;
261;SDS011;114;48.260;10.988;2023-04-25T13:08:38;0.53;;;0.53;;
261;SDS011;114;48.260;10.988;2023-04-25T13:11:05;0.60;;;0.60;;
261;SDS011;114;48.260;10.988;2023-04-25T13:13:31;1.23;;;1.13;;
261;SDS011;114;48.260;10.988;2023-04-25T13:15:57;1.00;;;0.67;;
261;SDS011;114;48.260;10.988;2023-04-25T13:18:23;2.50;;;1.33;;
261;SDS011;114;48.260;10.988;2023-04-25T13:20:52;1.20;;;1.10;;
261;SDS011;114;48.260;10.988;2023-04-25T13:23:18;1.67;;;1.57;;
261;SDS011;114;48.260;10.988;2023-04-25T13:25:45;1.03;;;1.03;;
261;SDS011;114;48.260;10.988;2023-04-25T13:28:11;2.33;;;1.90;;
261;SDS011;114;48.260;10.988;2023-04-25T13:30:37;2.23;;;2.10;;
261;SDS011;114;48.260;10.988;2023-04-25T13:33:03;3.27;;;2.73;;
261;SDS011;114;48.260;10.988;2023-04-25T13:35:29;0.90;;;0.90;;
261;SDS011;114;48.260;10.988;2023-04-25T13:37:55;1.33;;;1.23;;
261;SDS011;114;48.260;10.988;2023-04-25T13:40:21;1.43;;;1.33;;
261;SDS011;114;48.260;10.988;2023-04-25T13:42:47;0.90;;;0.90;;
261;SDS011;114;48.260;10.988;2023-04-25T13:45:13;1.43;;;1.43;;
261;SDS011;114;48.260;10.988;2023-04-25T13:47:38;0.80;;;0.80;;
261;SDS011;114;48.260;10.988;2023-04-25T13:50:04;2.80;;;1.70;;
261;SDS011;114;48.260;10.988;2023-04-25T13:52:31;1.90;;;1.67;;
261;SDS011;114;48.260;10.988;2023-04-25T13:54:57;2.80;;;2.57;;
261;SDS011;114;48.260;10.988;2023-04-25T13:57:23;1.50;;;1.50;;
261;SDS011;114;48.260;10.988;2023-04-25T13:59:50;1.40;;;1.23;;
261;SDS011;114;48.260;10.988;2023-04-25T14:02:16;1.77;;;1.67;;
261;SDS011;114;48.260;10.988;2023-04-25T14:04:41;1.27;;;1.00;;
261;SDS011;114;48.260;10.988;2023-04-25T14:07:07;2.40;;;1.00;;
261;SDS011;114;48.260;10.988;2023-04-25T14:09:33;1.60;;;1.60;;
261;SDS011;114;48.260;10.988;2023-04-25T14:11:59;1.00;;;1.00;;
261;SDS011;114;48.260;10.988;2023-04-25T14:14:25;0.67;;;0.67;;
261;SDS011;114;48.260;10.988;2023-04-25T14:16:51;1.00;;;1.00;;
261;SDS011;114;48.260;10.988;2023-04-25T14:19:19;0.93;;;0.93;;
261;SDS011;114;48.260;10.988;2023-04-25T14:21:45;1.20;;;1.20;;
261;SDS011;114;48.260;10.988;2023-04-25T14:24:11;1.20;;;1.10;;
261;SDS011;114;48.260;10.988;2023-04-25T14:26:38;1.33;;;1.23;;
261;SDS011;114;48.260;10.988;2023-04-25T14:29:05;0.93;;;0.93;;
261;SDS011;114;48.260;10.988;2023-04-25T14:31:36;1.00;;;1.00;;
261;SDS011;114;48.260;10.988;2023-04-25T14:34:04;1.23;;;1.23;;
261;SDS011;114;48.260;10.988;2023-04-25T14:36:31;2.53;;;1.03;;
261;SDS011;114;48.260;10.988;2023-04-25T14:38:58;1.20;;;1.10;;
261;SDS011;114;48.260;10.988;2023-04-25T14:41:25;1.00;;;1.00;;
261;SDS011;114;48.260;10.988;2023-04-25T14:43:51;1.00;;;1.00;;
261;SDS011;114;48.260;10.988;2023-04-25T14:46:21;0.90;;;0.90;;
261;SDS011;114;48.260;10.988;2023-04-25T14:48:48;1.27;;;1.27;;
261;SDS011;114;48.260;10.988;2023-04-25T14:51:14;0.80;;;0.80;;
261;SDS011;114;48.260;10.988;2023-04-25T14:53:40;0.87;;;0.87;;
261;SDS011;114;48.260;10.988;2023-04-25T14:56:06;1.00;;;1.00;;
261;SDS011;114;48.260;10.988;2023-04-25T14:58:32;0.97;;;0.97;;
261;SDS011;114;48.260;10.988;2023-04-25T15:00:59;0.80;;;0.80;;
261;SDS011;114;48.260;10.988;2023-04-25T15:03:24;1.37;;;1.30;;
261;SDS011;114;48.260;10.988;2023-04-25T15:05:51;1.20;;;1.20;;
261;SDS011;114;48.260;10.988;2023-04-25T15:08:17;1.07;;;1.07;;
261;SDS011;114;48.260;10.988;2023-04-25T15:10:43;1.27;;;1.27;;
261;SDS011;114;48.260;10.988;2023-04-25T15:13:10;1.47;;;1.43;;
261;SDS011;114;48.260;10.988;2023-04-25T15:15:36;1.80;;;1.70;;
261;SDS011;114;48.260;10.988;2023-04-25T15:18:01;1.70;;;1.60;;
261;SDS011;114;48.260;10.988;2023-04-25T15:20:27;1.70;;;1.60;;
261;SDS011;114;48.260;10.988;2023-04-25T15:22:53;1.63;;;1.53;;
261;SDS011;114;48.260;10.988;2023-04-25T15:25:19;2.20;;;2.10;;
261;SDS011;114;48.260;10.988;2023-04-25T15:27:45;2.70;;;2.50;;
261;SDS011;114;48.260;10.988;2023-04-25T15:30:14;2.40;;;2.20;;
261;SDS011;114;48.260;10.988;2023-04-25T15:32:41;1.93;;;1.83;;
261;SDS011;114;48.260;10.988;2023-04-25T15:35:07;2.70;;;2.60;;
261;SDS011;114;48.260;10.988;2023-04-25T15:37:34;2.40;;;2.20;;
261;SDS011;114;48.260;10.988;2023-04-25T15:42:37;6.33;;;3.40;;
261;SDS011;114;48.260;10.988;2023-04-25T15:45:04;2.20;;;2.10;;
261;SDS011;114;48.260;10.988;2023-04-25T15:47:31;3.20;;;3.00;;
261;SDS011;114;48.260;10.988;2023-04-25T15:49:58;2.27;;;2.17;;
261;SDS011;114;48.260;10.988;2023-04-25T15:52:24;2.87;;;2.70;;